createdAt,value
2022-09-11T00:05:02.301Z,14.47
2022-09-11T00:15:11.077Z,14.45
2022-09-11T00:25:16.858Z,14.36
2022-09-11T00:35:24.446Z,14.44
2022-09-11T00:45:32.400Z,14.40
2022-09-11T00:55:43.467Z,14.38
2022-09-11T01:05:52.921Z,14.33
2022-09-11T01:16:04.074Z,14.32
2022-09-11T01:26:18.499Z,14.34
2022-09-11T01:36:27.438Z,14.31
2022-09-11T01:46:41.285Z,14.25
2022-09-11T01:56:54.040Z,14.16
2022-09-11T02:07:07.577Z,14.18
2022-09-11T02:17:13.029Z,14.21
2022-09-11T02:27:22.572Z,14.19
2022-09-11T02:37:34.330Z,14.14
2022-09-11T02:47:43.090Z,14.05
2022-09-11T02:57:48.888Z,13.98
2022-09-11T03:07:55.333Z,14.03
2022-09-11T03:18:02.340Z,14.03
2022-09-11T03:28:10.223Z,14.04
2022-09-11T03:38:17.929Z,14.01
2022-09-11T03:48:24.544Z,14.06
2022-09-11T03:58:31.743Z,14.08
2022-09-11T04:08:41.419Z,14.04
2022-09-11T04:18:49.289Z,14.02
2022-09-11T04:28:57.384Z,14.02
2022-09-11T04:39:05.017Z,13.98
2022-09-11T04:49:11.241Z,14.01
2022-09-11T04:59:22.311Z,14.06
2022-09-11T05:09:29.824Z,14.06
2022-09-11T05:19:36.950Z,14.08
2022-09-11T05:29:44.290Z,14.14
2022-09-11T05:39:52.376Z,14.21
2022-09-11T05:49:59.655Z,14.37
2022-09-11T06:00:08.351Z,14.45
2022-09-11T06:10:15.814Z,14.57
2022-09-11T06:20:23.694Z,14.82
2022-09-11T06:30:30.953Z,15.19
2022-09-11T06:40:38.073Z,15.13
2022-09-11T06:50:45.674Z,15.13
2022-09-11T07:00:53.115Z,15.06
2022-09-11T07:11:02.893Z,15.00
2022-09-11T07:21:06.853Z,14.88
2022-09-11T07:31:20.705Z,15.04
2022-09-11T07:41:31.356Z,15.15
2022-09-11T07:51:40.573Z,15.25
2022-09-11T08:01:47.865Z,15.26
2022-09-11T08:11:58.826Z,15.12
2022-09-11T08:22:06.389Z,15.00
2022-09-11T08:32:13.766Z,14.86
2022-09-11T08:42:21.107Z,14.79
2022-09-11T08:52:29.096Z,14.81
2022-09-11T09:02:48.470Z,14.90
2022-09-11T09:13:02.903Z,14.99
2022-09-11T09:23:08.203Z,14.88
2022-09-11T09:33:20.588Z,14.94
2022-09-11T09:43:34.195Z,15.16
2022-09-11T09:53:41.245Z,15.54
2022-09-11T10:04:09.018Z,15.91
2022-09-11T10:14:49.399Z,16.42
2022-09-11T10:24:53.472Z,16.37
2022-09-11T10:35:00.782Z,16.78
2022-09-11T10:45:08.016Z,16.81
2022-09-11T10:55:19.027Z,16.84
2022-09-11T11:05:28.150Z,17.14
2022-09-11T11:15:39.185Z,17.20
2022-09-11T11:25:50.769Z,17.48
2022-09-11T11:35:58.262Z,17.87
2022-09-11T11:46:13.113Z,17.90
2022-09-11T11:56:19.331Z,18.07
2022-09-11T12:06:27.288Z,18.09
2022-09-11T12:16:34.992Z,17.51
2022-09-11T12:26:43.129Z,16.73
2022-09-11T12:36:51.910Z,16.37
2022-09-11T12:47:16.648Z,16.39
2022-09-11T12:57:21.689Z,16.12
2022-09-11T13:07:33.045Z,15.86
2022-09-11T13:17:42.560Z,15.47
2022-09-11T13:27:51.126Z,15.09
2022-09-11T13:38:00.610Z,15.22
2022-09-11T13:48:13.656Z,15.42
2022-09-11T13:58:23.017Z,15.54
2022-09-11T14:08:29.416Z,15.74
2022-09-11T14:18:42.360Z,16.04
2022-09-11T14:29:22.029Z,16.34
2022-09-11T14:39:27.992Z,16.23
2022-09-11T14:49:35.164Z,16.12
2022-09-11T14:59:42.462Z,16.01
2022-09-11T15:09:50.828Z,15.91
2022-09-11T15:20:00.615Z,15.72
2022-09-11T15:30:09.680Z,15.50
2022-09-11T15:40:17.858Z,15.45
2022-09-11T15:50:29.054Z,15.30
2022-09-11T16:00:36.564Z,15.13
2022-09-11T16:10:44.206Z,15.03
2022-09-11T16:20:57.580Z,15.02
2022-09-11T16:31:06.405Z,14.92
2022-09-11T16:41:16.817Z,14.85
2022-09-11T16:51:24.687Z,14.73
2022-09-11T17:01:32.307Z,14.57
2022-09-11T17:11:39.579Z,14.45
2022-09-11T17:21:46.080Z,14.40
2022-09-11T17:32:10.640Z,14.24
2022-09-11T17:42:19.362Z,14.10
2022-09-11T17:52:27.042Z,13.94
2022-09-11T18:02:34.933Z,13.78
2022-09-11T18:12:42.474Z,13.67
2022-09-11T18:22:50.420Z,13.52
2022-09-11T18:32:57.530Z,13.40
2022-09-11T18:43:06.568Z,13.29
2022-09-11T18:53:15.052Z,13.18
2022-09-11T19:03:22.838Z,13.09
2022-09-11T19:13:31.151Z,13.02
2022-09-11T19:23:40.884Z,12.87
2022-09-11T19:33:49.095Z,12.70
2022-09-11T19:44:00.343Z,12.54
2022-09-11T19:54:05.348Z,12.47
2022-09-11T20:04:13.749Z,12.47
2022-09-11T20:14:21.094Z,12.42
2022-09-11T20:24:28.717Z,12.31
2022-09-11T20:34:36.165Z,12.25
2022-09-11T20:44:45.610Z,12.26
2022-09-11T20:54:51.255Z,12.30
2022-09-11T21:05:00.533Z,12.26
2022-09-11T21:15:10.432Z,12.24
2022-09-11T21:25:17.558Z,12.21
2022-09-11T21:35:24.867Z,12.19
2022-09-11T21:45:32.828Z,12.16
2022-09-11T21:55:38.208Z,12.12
2022-09-11T22:05:49.220Z,12.10
2022-09-11T22:15:56.471Z,12.05
2022-09-11T22:26:07.631Z,11.99
2022-09-11T22:36:17.716Z,11.94
2022-09-11T22:46:26.916Z,11.88
2022-09-11T22:56:34.624Z,11.78
2022-09-11T23:06:59.479Z,11.73
2022-09-11T23:17:07.205Z,11.63
2022-09-11T23:27:14.659Z,11.56
2022-09-11T23:37:22.927Z,11.51
2022-09-11T23:47:28.901Z,11.46
2022-09-11T23:57:36.339Z,11.39
